Time;durP1;ratioP1;P1;durP2;ratioP2;P2;SDS_P1;SDS_P2;PMS_P1;PMS_P2;Temp;Humidity;BMP_temperature;BMP_pressure;BME280_temperature;BME280_humidity;BME280_pressure;Samples;Min_cycle;Max_cycle;Signal;HPM_P1;HPM_P2
2021/09/02 00:00:51;;;;;;;5.40;2.90;;;;;;;14.04;79.48;103080.28;4995557;28;20467;-73
2021/09/02 00:03:17;;;;;;;4.90;3.50;;;;;;;14.03;79.98;103075.06;4994726;28;20051;-73
2021/09/02 00:05:42;;;;;;;4.35;3.30;;;;;;;14.01;79.94;103067.13;4995277;28;20030;-73
2021/09/02 00:08:08;;;;;;;6.05;3.90;;;;;;;14.01;80.73;103068.97;4995403;28;20026;-72
2021/09/02 00:10:35;;;;;;;3.72;2.90;;;;;;;13.99;80.87;103066.41;4994382;28;20041;-73
2021/09/02 00:13:00;;;;;;;4.55;3.17;;;;;;;13.98;80.78;103074.53;4995293;28;20051;-73
2021/09/02 00:15:26;;;;;;;10.00;3.63;;;;;;;13.96;81.09;103077.31;4994688;28;20027;-73
2021/09/02 00:17:52;;;;;;;4.05;3.22;;;;;;;13.95;80.93;103069.41;4995175;28;20454;-72
2021/09/02 00:20:17;;;;;;;4.80;3.20;;;;;;;13.93;81.25;103067.66;4994405;28;20126;-72
2021/09/02 00:22:43;;;;;;;3.65;3.20;;;;;;;13.91;80.77;103063.38;5010131;28;20087;-72
2021/09/02 00:25:10;;;;;;;5.45;3.40;;;;;;;13.90;80.46;103065.22;5010165;28;20030;-72
2021/09/02 00:27:35;;;;;;;5.93;3.75;;;;;;;13.90;81.04;103067.88;4994385;28;20034;-72
2021/09/02 00:30:01;;;;;;;6.30;3.20;;;;;;;13.91;80.85;103068.72;4993183;28;20162;-73
2021/09/02 00:32:26;;;;;;;3.42;3.10;;;;;;;13.92;80.83;103070.47;4994036;28;20069;-73
2021/09/02 00:34:51;;;;;;;9.00;3.50;;;;;;;13.90;81.20;103059.00;4993335;28;20038;-72
2021/09/02 00:37:17;;;;;;;7.10;3.80;;;;;;;13.89;81.51;103060.81;4993964;28;20448;-72
2021/09/02 00:39:42;;;;;;;5.60;3.90;;;;;;;13.88;81.50;103056.44;4994775;28;20027;-72
2021/09/02 00:42:07;;;;;;;4.93;3.60;;;;;;;13.88;81.02;103055.56;4995016;28;20066;-72
2021/09/02 00:44:37;;;;;;;7.45;3.95;;;;;;;13.86;81.67;103055.69;4993975;28;20061;-72
2021/09/02 00:47:06;;;;;;;6.78;3.90;;;;;;;13.84;82.14;103052.25;4994727;28;20542;-72
2021/09/02 00:49:33;;;;;;;7.53;4.20;;;;;;;13.85;82.08;103050.44;4993899;28;20030;-72
2021/09/02 00:52:22;;;;;;;4.90;3.67;;;;;;;13.82;82.04;103048.81;4994671;28;20038;-73
2021/09/02 00:54:51;;;;;;;8.40;3.75;;;;;;;13.82;81.94;103048.81;4994187;28;20057;-72
2021/09/02 00:57:18;;;;;;;5.43;3.65;;;;;;;13.81;81.88;103044.44;4994051;28;20037;-73
2021/09/02 00:59:46;;;;;;;6.78;3.72;;;;;;;13.80;82.08;103044.56;4993025;28;20054;-72
2021/09/02 01:02:11;;;;;;;7.15;3.75;;;;;;;13.78;81.64;103041.13;4994295;28;20046;-72
2021/09/02 01:04:37;;;;;;;5.80;3.45;;;;;;;13.75;82.05;103029.69;4993770;28;20041;-72
2021/09/02 01:07:03;;;;;;;8.93;4.43;;;;;;;13.74;82.40;103033.31;4994168;28;20121;-72
2021/09/02 01:09:31;;;;;;;7.18;4.00;;;;;;;13.74;82.33;103035.13;4993377;28;20493;-73
2021/09/02 01:11:56;;;;;;;7.15;3.60;;;;;;;13.72;82.27;103021.03;4994098;28;20120;-72
2021/09/02 01:14:22;;;;;;;6.32;3.97;;;;;;;13.72;82.35;103024.53;4993598;28;20066;-73
2021/09/02 01:16:49;;;;;;;9.27;4.35;;;;;;;13.72;82.37;103026.38;4994377;28;20066;-72
2021/09/02 01:19:19;;;;;;;7.13;4.32;;;;;;;13.71;82.54;103021.97;4994292;28;20030;-73
2021/09/02 01:21:45;;;;;;;7.03;3.90;;;;;;;13.70;82.04;103026.47;4994487;28;20093;-72
2021/09/02 01:24:12;;;;;;;7.97;4.40;;;;;;;13.69;82.18;103031.91;4994327;28;20042;-72
2021/09/02 01:26:37;;;;;;;6.78;4.38;;;;;;;13.69;82.55;103029.22;4993279;28;20042;-72
2021/09/02 01:29:04;;;;;;;9.02;4.35;;;;;;;13.69;82.69;103024.75;4993980;28;20525;-72
2021/09/02 01:31:29;;;;;;;7.97;4.80;;;;;;;13.68;82.41;103025.72;4993396;28;20037;-73
2021/09/02 01:33:55;;;;;;;12.15;4.93;;;;;;;13.67;82.19;103023.97;4993751;28;20034;-72
2021/09/02 01:36:20;;;;;;;8.02;4.47;;;;;;;13.66;82.56;103016.06;4993345;28;20065;-74
2021/09/02 01:38:46;;;;;;;8.43;4.68;;;;;;;13.64;82.69;103013.50;4993973;28;20057;-72
2021/09/02 01:41:11;;;;;;;8.50;4.60;;;;;;;13.64;82.23;103018.00;4993137;28;20050;-72
2021/09/02 01:43:37;;;;;;;11.23;5.00;;;;;;;13.65;82.34;103019.72;4992564;28;20038;-72
2021/09/02 01:46:03;;;;;;;10.68;5.07;;;;;;;13.63;82.57;103025.19;4993298;28;20042;-72
2021/09/02 01:48:35;;;;;;;9.63;5.40;;;;;;;13.62;82.91;103022.63;4992720;28;20459;-73
2021/09/02 01:51:01;;;;;;;9.57;5.35;;;;;;;13.61;82.71;103028.91;4993691;28;20030;-72
2021/09/02 01:53:27;;;;;;;8.57;4.90;;;;;;;13.61;82.73;103031.59;4992387;28;20038;-73
2021/09/02 01:55:52;;;;;;;9.07;4.85;;;;;;;13.61;83.11;103034.25;4993404;28;20034;-72
2021/09/02 01:58:18;;;;;;;11.35;5.30;;;;;;;13.62;82.98;103030.63;4993398;28;20352;-72
2021/09/02 02:00:44;;;;;;;9.93;5.18;;;;;;;13.61;82.48;103029.75;4992763;28;20121;-73
2021/09/02 02:03:09;;;;;;;7.90;5.13;;;;;;;13.61;82.83;103034.25;4993502;28;20153;-72
2021/09/02 02:05:35;;;;;;;8.60;5.25;;;;;;;13.60;82.88;103030.75;4992887;28;20071;-72
2021/09/02 02:08:01;;;;;;;8.77;5.35;;;;;;;13.60;82.81;103029.88;4993278;28;20039;-72
2021/09/02 02:10:28;;;;;;;12.40;5.78;;;;;;;13.59;82.98;103029.03;4992672;28;20038;-72
2021/09/02 02:12:59;;;;;;;10.55;5.35;;;;;;;13.58;82.91;103024.63;4993355;28;20026;-73
2021/09/02 02:15:25;;;;;;;8.82;4.95;;;;;;;13.59;82.96;103029.03;4992598;28;20022;-74
2021/09/02 02:17:50;;;;;;;8.50;5.45;;;;;;;13.57;83.00;103020.25;4992991;28;20037;-72
2021/09/02 02:20:16;;;;;;;10.07;5.15;;;;;;;13.56;82.85;103024.72;4993195;28;20034;-72
2021/09/02 02:22:42;;;;;;;9.15;5.18;;;;;;;13.56;82.94;103022.06;4992587;28;20395;-73
2021/09/02 02:25:09;;;;;;;11.32;5.35;;;;;;;13.57;83.15;103014.91;4993233;28;20037;-72
2021/09/02 02:27:35;;;;;;;12.68;5.40;;;;;;;13.55;82.69;103011.47;4992478;28;20065;-73
2021/09/02 02:30:02;;;;;;;7.68;5.43;;;;;;;13.53;82.73;103018.75;4993354;28;20436;-73
2021/09/02 02:32:27;;;;;;;9.10;5.15;;;;;;;13.54;83.50;103018.66;4992484;28;20047;-73
2021/09/02 02:34:52;;;;;;;9.18;5.43;;;;;;;13.53;82.90;103016.91;4993029;28;20145;-73
2021/09/02 02:37:18;;;;;;;8.73;5.10;;;;;;;13.52;82.99;103020.53;4993070;28;20041;-72
2021/09/02 02:39:43;;;;;;;8.88;5.70;;;;;;;13.52;83.26;103014.34;4992516;28;20045;-73
2021/09/02 02:42:10;;;;;;;9.35;4.85;;;;;;;13.52;83.02;103022.38;4992709;28;20169;-72
2021/09/02 02:44:37;;;;;;;10.35;5.45;;;;;;;13.51;83.25;103017.97;4992718;28;20042;-73
2021/09/02 02:47:03;;;;;;;9.85;5.00;;;;;;;13.50;83.37;103016.28;4992958;28;20085;-73
2021/09/02 02:49:28;;;;;;;10.15;4.82;;;;;;;13.50;83.21;103013.63;4992701;28;20039;-74
2021/09/02 02:51:54;;;;;;;10.15;4.63;;;;;;;13.49;83.47;103012.75;4992864;28;20523;-72
2021/09/02 02:54:19;;;;;;;11.10;5.10;;;;;;;13.48;82.85;103013.72;4996799;28;20045;-72
2021/09/02 02:56:45;;;;;;;10.07;4.93;;;;;;;13.47;82.95;103017.34;5011438;28;20177;-73
2021/09/02 02:59:10;;;;;;;8.70;5.30;;;;;;;13.46;83.04;103014.78;4995781;28;20105;-73
2021/09/02 03:01:37;;;;;;;11.35;5.28;;;;;;;13.44;83.34;103011.38;4995990;28;20399;-73
2021/09/02 03:04:03;;;;;;;10.00;4.85;;;;;;;13.44;83.58;103017.56;4996435;28;20042;-72
2021/09/02 03:06:28;;;;;;;10.10;5.05;;;;;;;13.44;83.09;103014.88;4996719;28;20042;-72
2021/09/02 03:08:54;;;;;;;8.00;5.63;;;;;;;13.44;83.23;103016.72;4996008;28;20067;-72
2021/09/02 03:11:19;;;;;;;10.23;5.28;;;;;;;13.43;83.08;103020.34;4996625;28;20463;-72
2021/09/02 03:13:44;;;;;;;9.18;5.28;;;;;;;13.42;83.12;103021.28;4995776;28;20030;-72
2021/09/02 03:16:10;;;;;;;15.13;5.80;;;;;;;13.41;83.78;103012.44;4996611;28;20117;-72
2021/09/02 03:18:35;;;;;;;10.77;5.40;;;;;;;13.40;83.26;103016.06;4995906;28;20041;-72
2021/09/02 03:21:01;;;;;;;15.13;6.03;;;;;;;13.38;83.20;103012.63;4996360;28;20494;-72
2021/09/02 03:23:26;;;;;;;9.35;5.32;;;;;;;13.38;82.88;103005.47;4995884;28;20035;-72
2021/09/02 03:25:52;;;;;;;12.05;5.30;;;;;;;13.36;82.98;103004.72;4995392;28;20242;-72
2021/09/02 03:28:17;;;;;;;9.90;5.13;;;;;;;13.37;83.05;103009.09;4995881;28;20042;-72
2021/09/02 03:30:43;;;;;;;10.38;5.15;;;;;;;13.37;82.68;103011.75;4995116;28;20037;-72
2021/09/02 03:33:08;;;;;;;9.23;4.97;;;;;;;13.36;81.84;103010.06;4996827;28;20093;-72
2021/09/02 03:35:34;;;;;;;8.43;5.03;;;;;;;13.36;82.20;103007.41;4996165;28;20383;-74
2021/09/02 03:37:59;;;;;;;9.15;5.10;;;;;;;13.35;82.57;103005.66;4996232;28;20065;-73
2021/09/02 03:40:24;;;;;;;9.73;5.20;;;;;;;13.35;82.54;103002.16;4996365;28;20414;-73
2021/09/02 03:42:50;;;;;;;8.85;4.85;;;;;;;13.34;82.44;102998.59;4996617;28;20471;-73
2021/09/02 03:45:15;;;;;;;6.75;4.70;;;;;;;13.34;82.42;102995.94;4996695;28;20541;-72
2021/09/02 03:47:46;;;;;;;7.63;4.72;;;;;;;13.33;83.02;102994.19;4995684;28;20414;-73
2021/09/02 03:50:12;;;;;;;7.30;4.90;;;;;;;13.33;82.59;102998.66;4996322;28;20034;-72
2021/09/02 03:52:37;;;;;;;9.02;4.95;;;;;;;13.31;82.23;102993.44;4994943;28;20118;-73
2021/09/02 03:55:03;;;;;;;9.95;4.80;;;;;;;13.29;81.90;102992.69;4995860;28;20085;-73
2021/09/02 03:57:28;;;;;;;9.95;4.70;;;;;;;13.28;81.57;102987.44;4995863;28;20034;-72
2021/09/02 03:59:53;;;;;;;8.15;4.70;;;;;;;13.25;81.07;102982.31;4995101;28;20143;-72
2021/09/02 04:02:19;;;;;;;8.10;4.45;;;;;;;13.24;82.00;102984.13;4995534;28;20100;-72
2021/09/02 04:04:44;;;;;;;10.63;4.78;;;;;;;13.22;82.49;102983.38;4994997;28;20076;-73
2021/09/02 04:07:09;;;;;;;11.48;5.00;;;;;;;13.23;82.39;102987.78;5010640;28;20141;-72
2021/09/02 04:09:35;;;;;;;11.18;4.75;;;;;;;13.22;82.60;102983.38;4994321;28;20038;-72
2021/09/02 04:12:00;;;;;;;10.35;4.68;;;;;;;13.20;81.71;102979.97;4994901;28;20033;-72
2021/09/02 04:14:25;;;;;;;7.90;4.47;;;;;;;13.20;81.75;102979.97;4995033;28;20170;-72
2021/09/02 04:16:51;;;;;;;7.72;4.70;;;;;;;13.21;81.13;102987.00;4993423;28;20030;-72
2021/09/02 04:19:17;;;;;;;7.50;4.35;;;;;;;13.20;80.51;102977.28;4995530;28;20035;-72
2021/09/02 04:21:42;;;;;;;11.13;5.10;;;;;;;13.19;81.10;102973.72;4994359;28;20451;-73
2021/09/02 04:24:08;;;;;;;7.82;5.13;;;;;;;13.19;81.50;102971.06;4994857;28;20073;-72
2021/09/02 04:26:33;;;;;;;11.95;4.70;;;;;;;13.20;80.53;102974.63;4995228;28;20034;-72
2021/09/02 04:28:58;;;;;;;10.93;4.72;;;;;;;13.19;80.20;102973.72;4994295;28;20490;-73
2021/09/02 04:31:23;;;;;;;10.75;4.88;;;;;;;13.19;80.28;102980.91;4994938;28;20026;-73
2021/09/02 04:33:49;;;;;;;7.85;4.65;;;;;;;13.18;80.32;102981.84;4994452;28;20383;-73
2021/09/02 04:36:14;;;;;;;11.35;4.70;;;;;;;13.17;81.60;102981.00;4995170;28;20038;-73
2021/09/02 04:38:40;;;;;;;11.02;4.82;;;;;;;13.18;81.05;102984.53;4994731;28;20038;-73
2021/09/02 04:41:05;;;;;;;7.63;4.63;;;;;;;13.17;81.05;102980.16;4994414;28;20046;-72
2021/09/02 04:43:30;;;;;;;6.63;4.65;;;;;;;13.18;81.26;102979.19;4994897;28;20034;-73
2021/09/02 04:45:56;;;;;;;7.35;4.43;;;;;;;13.18;81.15;102988.09;4994216;28;20121;-73
2021/09/02 04:48:22;;;;;;;9.98;4.85;;;;;;;13.17;82.01;102985.50;4994630;28;20530;-72
2021/09/02 04:50:49;;;;;;;9.82;4.65;;;;;;;13.18;81.92;102989.88;4994183;28;20394;-73
2021/09/02 04:53:15;;;;;;;8.73;5.00;;;;;;;13.18;82.93;102990.75;4994799;28;20042;-73
2021/09/02 04:55:41;;;;;;;10.32;4.88;;;;;;;13.18;82.57;102985.41;4994423;28;20471;-72
2021/09/02 04:58:08;;;;;;;12.52;4.82;;;;;;;13.19;82.63;102988.94;4993955;28;20039;-72
2021/09/02 05:00:35;;;;;;;7.47;4.78;;;;;;;13.19;82.53;102987.09;4994327;28;20039;-72
2021/09/02 05:03:01;;;;;;;11.75;5.20;;;;;;;13.20;82.40;102990.66;4994081;28;20108;-72
2021/09/02 05:05:26;;;;;;;13.25;7.75;;;;;;;13.21;82.69;102993.22;4994255;28;20046;-72
2021/09/02 05:07:52;;;;;;;9.82;5.90;;;;;;;13.21;82.33;102990.53;4993729;28;20034;-73
2021/09/02 05:10:18;;;;;;;13.90;5.63;;;;;;;13.22;82.31;102994.91;4994454;28;20038;-72
2021/09/02 05:12:43;;;;;;;8.70;4.95;;;;;;;13.23;82.49;102996.63;4994419;28;20034;-72
2021/09/02 05:15:09;;;;;;;11.90;5.60;;;;;;;13.25;82.10;102999.19;4991653;28;20466;-72
2021/09/02 05:17:34;;;;;;;10.00;5.90;;;;;;;13.25;82.14;102993.00;4994210;28;20034;-73
2021/09/02 05:20:00;;;;;;;10.25;5.40;;;;;;;13.26;82.56;102984.88;4993369;28;20036;-73
2021/09/02 05:22:25;;;;;;;9.40;5.72;;;;;;;13.29;82.46;102986.50;4994227;28;20038;-73
2021/09/02 05:24:51;;;;;;;13.90;5.68;;;;;;;13.30;82.22;102980.16;5008662;28;20030;-73
2021/09/02 05:27:17;;;;;;;10.77;5.30;;;;;;;13.32;82.38;102987.13;4994078;28;20042;-73
2021/09/02 05:29:42;;;;;;;9.38;5.53;;;;;;;13.34;82.69;102984.38;4994250;28;20390;-74
2021/09/02 05:32:08;;;;;;;8.45;5.40;;;;;;;13.36;82.87;102988.69;4993106;28;20045;-74
2021/09/02 05:34:33;;;;;;;13.95;7.05;;;;;;;13.38;82.85;102988.56;4994032;28;20062;-72
2021/09/02 05:36:59;;;;;;;13.07;6.53;;;;;;;13.38;82.39;102986.75;4993134;28;20064;-73
2021/09/02 05:39:24;;;;;;;11.70;5.57;;;;;;;13.41;82.93;102988.34;4993857;28;20030;-72
2021/09/02 05:41:50;;;;;;;13.85;5.53;;;;;;;13.45;83.06;102987.19;4993098;28;20031;-74
2021/09/02 05:44:16;;;;;;;10.93;5.45;;;;;;;13.47;82.69;102977.22;4993740;28;20046;-72
2021/09/02 05:46:41;;;;;;;10.27;5.18;;;;;;;13.52;83.30;102982.25;4993927;28;20046;-73
2021/09/02 05:49:07;;;;;;;10.32;6.10;;;;;;;13.55;82.63;102982.03;4993112;28;20125;-73
2021/09/02 05:51:32;;;;;;;15.25;6.22;;;;;;;13.61;82.79;102986.13;4993441;28;20053;-73
2021/09/02 05:53:57;;;;;;;15.98;6.25;;;;;;;13.66;82.92;102987.53;4993242;28;20077;-73
2021/09/02 05:56:23;;;;;;;11.82;5.65;;;;;;;13.72;83.16;102988.91;4993492;28;20066;-73
2021/09/02 05:58:48;;;;;;;11.60;5.43;;;;;;;13.79;82.86;102986.66;4993810;28;20045;-72
2021/09/02 06:01:15;;;;;;;9.65;5.75;;;;;;;13.85;82.52;102986.22;4992720;28;20507;-72
2021/09/02 06:03:41;;;;;;;8.65;5.70;;;;;;;13.91;82.80;102983.09;4992389;28;20121;-72
2021/09/02 06:06:07;;;;;;;13.95;6.05;;;;;;;13.96;82.80;102980.09;4993014;28;20081;-72
2021/09/02 06:08:34;;;;;;;11.27;5.80;;;;;;;14.04;82.70;102980.41;4993718;28;20473;-72
2021/09/02 06:11:02;;;;;;;14.57;6.40;;;;;;;14.11;82.70;102981.69;4992748;28;20030;-72
2021/09/02 06:13:29;;;;;;;12.55;6.82;;;;;;;14.16;81.26;102978.69;4993564;28;20042;-72
2021/09/02 06:15:54;;;;;;;16.75;6.93;;;;;;;14.24;81.89;102981.66;4992584;28;20038;-73
2021/09/02 06:18:19;;;;;;;16.23;7.10;;;;;;;14.33;80.34;102985.47;4993245;28;20406;-72
2021/09/02 06:20:45;;;;;;;22.63;7.28;;;;;;;14.41;79.96;102985.78;4993560;28;20165;-72
2021/09/02 06:23:10;;;;;;;14.82;7.30;;;;;;;14.49;80.03;102988.75;4992255;28;20121;-73
2021/09/02 06:25:36;;;;;;;15.27;7.25;;;;;;;14.55;80.18;102993.66;4993148;28;20041;-72
2021/09/02 06:28:01;;;;;;;15.63;7.28;;;;;;;14.60;79.98;102982.59;4991631;28;20030;-73
2021/09/02 06:30:26;;;;;;;36.72;8.43;;;;;;;14.68;80.22;102992.81;4993421;28;20543;-73
2021/09/02 06:32:52;;;;;;;25.02;8.90;;;;;;;14.75;79.98;102994.03;4993202;28;20374;-72
2021/09/02 06:35:17;;;;;;;23.30;8.00;;;;;;;14.80;79.74;102990.03;4992447;28;20038;-72
2021/09/02 06:37:42;;;;;;;22.48;8.00;;;;;;;14.85;78.97;102988.84;4993070;28;20026;-72
2021/09/02 06:40:10;;;;;;;16.90;7.72;;;;;;;14.86;75.75;102985.22;4992376;28;20034;-73
2021/09/02 06:42:35;;;;;;;20.42;7.25;;;;;;;14.94;76.55;102988.16;4992976;28;20038;-73
2021/09/02 06:45:01;;;;;;;20.98;7.90;;;;;;;15.00;76.33;102995.72;4992500;28;20093;-73
2021/09/02 06:47:26;;;;;;;25.70;8.25;;;;;;;15.04;74.89;102991.84;4991729;28;20034;-73
2021/09/02 06:49:51;;;;;;;22.02;8.88;;;;;;;15.09;75.66;102991.50;4992795;28;20384;-73
2021/09/02 06:52:17;;;;;;;16.27;7.82;;;;;;;15.16;75.73;102992.75;4992062;28;20337;-73
2021/09/02 06:54:42;;;;;;;16.90;7.50;;;;;;;15.18;74.49;102982.75;4992943;28;20058;-73
2021/09/02 06:57:07;;;;;;;17.55;7.78;;;;;;;15.24;75.03;102986.81;4992277;28;20545;-73
2021/09/02 06:59:33;;;;;;;17.25;7.15;;;;;;;15.31;76.05;102988.03;4993074;28;20035;-72
2021/09/02 07:01:58;;;;;;;13.00;6.90;;;;;;;15.38;77.01;102983.06;4992761;28;20042;-73
2021/09/02 07:04:24;;;;;;;18.27;7.80;;;;;;;15.44;75.96;102987.97;4992736;28;20065;-73
2021/09/02 07:06:49;;;;;;;17.17;7.50;;;;;;;15.49;74.68;102994.66;4992818;28;20034;-73
2021/09/02 07:09:15;;;;;;;13.65;7.43;;;;;;;15.58;72.76;102997.63;4991953;28;20390;-73
2021/09/02 07:11:40;;;;;;;16.85;8.13;;;;;;;15.63;73.97;102996.28;4992716;28;20399;-73
2021/09/02 07:14:06;;;;;;;18.50;7.82;;;;;;;15.68;74.62;102999.44;4991788;28;20097;-73
2021/09/02 07:16:31;;;;;;;19.00;8.00;;;;;;;15.74;72.98;103005.31;4992512;28;20034;-73
2021/09/02 07:18:56;;;;;;;19.02;7.57;;;;;;;15.80;74.70;102997.66;4991577;28;20467;-74
2021/09/02 07:21:22;;;;;;;17.52;7.78;;;;;;;15.86;74.34;103002.53;4992164;28;20034;-73
2021/09/02 07:23:47;;;;;;;21.10;8.30;;;;;;;15.92;74.29;103001.22;4992790;28;20057;-72
2021/09/02 07:26:13;;;;;;;14.77;6.55;;;;;;;15.97;68.01;102993.66;4992155;28;20027;-73
2021/09/02 07:28:38;;;;;;;12.25;5.93;;;;;;;16.12;69.83;102996.94;4992598;28;20039;-73
2021/09/02 07:31:03;;;;;;;17.52;6.57;;;;;;;16.22;70.01;103003.25;4992040;28;20047;-75
2021/09/02 07:33:29;;;;;;;15.63;6.70;;;;;;;16.27;72.34;103010.09;4992717;28;20070;-73
2021/09/02 07:35:55;;;;;;;16.77;6.90;;;;;;;16.29;71.82;103000.94;4992715;28;20039;-73
2021/09/02 07:38:20;;;;;;;16.60;7.78;;;;;;;16.35;71.39;103003.13;4993056;28;20455;-73
2021/09/02 07:40:45;;;;;;;15.75;7.53;;;;;;;16.38;70.29;103005.56;4996308;28;20081;-72
2021/09/02 07:43:11;;;;;;;14.38;6.10;;;;;;;16.44;67.86;103003.38;4995582;28;20034;-73
2021/09/02 07:45:36;;;;;;;12.18;6.50;;;;;;;16.49;69.54;103009.22;5010901;28;20042;-73
2021/09/02 07:48:02;;;;;;;12.65;6.40;;;;;;;16.51;67.66;103012.63;4996230;28;20042;-73
2021/09/02 07:50:28;;;;;;;13.50;5.80;;;;;;;16.49;64.95;103009.22;4995357;28;20529;-72
2021/09/02 07:52:53;;;;;;;14.20;6.03;;;;;;;16.51;63.03;103005.44;4996024;28;20035;-72
2021/09/02 07:55:19;;;;;;;14.23;5.78;;;;;;;16.65;68.83;103015.03;4994980;28;20490;-73
2021/09/02 07:57:47;;;;;;;10.57;6.00;;;;;;;16.78;66.16;103016.72;4996356;28;20034;-72
2021/09/02 08:00:14;;;;;;;10.25;5.57;;;;;;;16.88;65.91;103015.00;4995343;28;20104;-74
2021/09/02 08:02:39;;;;;;;18.90;6.47;;;;;;;16.89;65.04;103012.19;4995389;28;20054;-73
2021/09/02 08:05:05;;;;;;;14.38;6.43;;;;;;;16.90;66.97;103016.59;4995768;28;20040;-73
2021/09/02 08:07:30;;;;;;;16.52;6.20;;;;;;;16.90;68.99;103013.91;4994879;28;20419;-73
2021/09/02 08:09:56;;;;;;;15.50;6.25;;;;;;;16.90;68.96;103019.28;4995668;28;20042;-73
2021/09/02 08:12:21;;;;;;;17.55;6.60;;;;;;;16.94;66.20;103024.41;4994607;28;20023;-73
2021/09/02 08:14:46;;;;;;;13.18;6.43;;;;;;;16.94;66.42;103014.47;4995417;28;20038;-73
2021/09/02 08:17:12;;;;;;;12.18;5.97;;;;;;;16.95;65.12;103026.13;4994522;28;20042;-73
2021/09/02 08:19:37;;;;;;;12.07;6.22;;;;;;;16.88;67.61;103020.38;4995228;28;20169;-73
2021/09/02 08:22:03;;;;;;;14.20;5.97;;;;;;;16.85;68.97;103025.97;4995058;28;20038;-73
2021/09/02 08:24:28;;;;;;;11.98;6.15;;;;;;;16.83;70.08;103018.03;4994712;28;20279;-73
2021/09/02 08:26:54;;;;;;;12.52;6.38;;;;;;;16.70;69.35;103018.19;4995402;28;20482;-73
2021/09/02 08:29:19;;;;;;;12.65;6.63;;;;;;;16.67;69.51;103022.97;4994283;28;20117;-74
2021/09/02 08:31:45;;;;;;;20.77;8.18;;;;;;;16.60;67.51;103022.63;4995227;28;20041;-73
2021/09/02 08:34:10;;;;;;;18.00;8.15;;;;;;;16.52;69.59;103017.03;4994750;28;20096;-75
2021/09/02 08:36:36;;;;;;;19.48;7.97;;;;;;;16.49;70.25;103020.81;4994764;28;20035;-73
2021/09/02 08:39:02;;;;;;;17.77;9.07;;;;;;;16.45;70.56;103022.06;4995170;28;20036;-73
2021/09/02 08:41:28;;;;;;;24.05;9.05;;;;;;;16.47;70.17;103028.16;4994724;28;20490;-73
2021/09/02 08:43:53;;;;;;;21.88;9.90;;;;;;;16.46;71.02;103023.75;4995143;28;20035;-73
2021/09/02 08:46:20;;;;;;;17.75;9.07;;;;;;;16.51;70.23;103024.25;4994262;28;20035;-73
2021/09/02 08:48:48;;;;;;;19.38;8.93;;;;;;;16.55;70.33;103027.53;4995172;28;20387;-73
2021/09/02 08:51:14;;;;;;;18.13;9.35;;;;;;;16.66;70.00;103023.94;4993429;28;20096;-74
2021/09/02 08:53:42;;;;;;;23.83;9.90;;;;;;;16.73;71.50;103027.84;4994343;28;20045;-73
2021/09/02 08:56:08;;;;;;;23.02;10.02;;;;;;;16.77;70.54;103033.84;4994573;28;20030;-73
2021/09/02 08:58:33;;;;;;;28.45;11.00;;;;;;;16.77;71.60;103023.94;4993790;28;20450;-74
2021/09/02 09:00:59;;;;;;;21.13;9.63;;;;;;;16.77;70.52;103033.84;4994357;28;20034;-74
2021/09/02 09:03:25;;;;;;;23.02;9.80;;;;;;;16.79;71.21;103031.88;4994158;28;20465;-74
2021/09/02 09:05:56;;;;;;;21.30;9.70;;;;;;;16.86;72.17;103027.69;4994472;28;20034;-74
2021/09/02 09:08:40;;;;;;;20.90;10.20;;;;;;;16.89;70.61;103033.69;4993880;28;20038;-74
2021/09/02 09:11:21;;;;;;;23.08;10.75;;;;;;;17.07;71.70;103041.22;4994589;28;20027;-74
2021/09/02 09:14:02;;;;;;;19.50;9.02;;;;;;;17.22;70.64;103034.53;4994453;28;20030;-74
2021/09/02 09:17:00;;;;;;;21.83;9.50;;;;;;;17.39;69.50;103038.50;4993694;28;20026;-74
2021/09/02 09:19:54;;;;;;;20.92;9.30;;;;;;;17.53;69.47;103025.69;4981628;28;20046;-74
2021/09/02 09:22:22;;;;;;;20.42;8.75;;;;;;;17.72;68.20;103023.13;4993574;28;20037;-74
2021/09/02 09:24:49;;;;;;;17.77;8.38;;;;;;;17.87;63.49;103022.75;4994206;28;20031;-73
2021/09/02 09:27:40;;;;;;;21.75;8.32;;;;;;;18.10;65.44;103024.31;4994229;28;20026;-73
2021/09/02 09:30:19;;;;;;;15.30;7.32;;;;;;;18.18;64.24;103017.38;4994127;28;20026;-74
2021/09/02 09:32:49;;;;;;;24.52;8.60;;;;;;;18.16;62.93;103025.59;4994046;28;20041;-74
2021/09/02 09:35:16;;;;;;;16.08;8.05;;;;;;;18.12;63.69;103021.47;4992591;28;20029;-74
2021/09/02 09:37:42;;;;;;;19.50;8.93;;;;;;;18.09;65.96;103019.94;4993371;28;20093;-74
2021/09/02 09:40:13;;;;;;;16.40;8.90;;;;;;;18.00;66.16;103017.19;4993881;28;20050;-73
2021/09/02 09:42:38;;;;;;;17.02;7.85;;;;;;;17.99;66.24;103019.03;4993392;28;20439;-73
2021/09/02 09:45:07;;;;;;;16.55;9.13;;;;;;;17.86;65.83;103021.06;5008917;28;20029;-73
2021/09/02 09:47:34;;;;;;;26.38;9.13;;;;;;;17.79;67.00;103013.53;4993029;28;20061;-74
2021/09/02 09:50:00;;;;;;;15.15;7.82;;;;;;;17.77;64.57;103020.03;4993850;28;20035;-73
2021/09/02 09:52:37;;;;;;;19.20;8.90;;;;;;;17.69;66.40;103028.78;4992843;28;20142;-74
2021/09/02 09:55:17;;;;;;;19.90;8.20;;;;;;;17.67;67.22;103025.34;4993682;28;20502;-74
2021/09/02 09:57:44;;;;;;;18.77;8.38;;;;;;;17.74;66.01;103023.00;4993001;28;20072;-74
2021/09/02 10:00:20;;;;;;;20.98;9.05;;;;;;;17.75;65.90;103019.28;4993506;28;20030;-74
2021/09/02 10:02:48;;;;;;;22.42;8.70;;;;;;;17.69;65.57;103020.69;4991397;28;20428;-74
2021/09/02 10:05:15;;;;;;;21.83;9.07;;;;;;;17.78;67.37;103022.56;4993486;28;20039;-74
2021/09/02 10:07:43;;;;;;;21.77;8.93;;;;;;;17.76;66.24;103023.69;4992820;28;20434;-73
2021/09/02 10:10:13;;;;;;;19.20;9.00;;;;;;;17.89;67.88;103023.50;4993406;28;20042;-74
2021/09/02 10:12:40;;;;;;;25.75;9.15;;;;;;;17.96;66.44;103016.63;4992752;28;20121;-74
2021/09/02 10:15:08;;;;;;;24.00;8.98;;;;;;;18.11;65.69;103015.25;4993181;28;20096;-73
2021/09/02 10:17:35;;;;;;;17.70;8.60;;;;;;;18.02;65.26;103010.69;4992329;28;20062;-74
2021/09/02 10:20:10;;;;;;;22.10;8.63;;;;;;;18.00;67.37;103014.50;4993422;28;20402;-73
2021/09/02 10:22:35;;;;;;;18.85;8.73;;;;;;;17.94;66.71;103014.06;4992774;28;20045;-74
2021/09/02 10:25:01;;;;;;;20.30;8.30;;;;;;;18.05;67.28;103006.84;4992067;28;20422;-73
2021/09/02 10:27:26;;;;;;;18.95;7.80;;;;;;;18.17;66.57;103002.19;4992394;28;20073;-74
2021/09/02 10:29:53;;;;;;;19.33;8.52;;;;;;;18.26;65.90;102999.56;4993067;28;20034;-73
2021/09/02 10:32:22;;;;;;;23.98;8.57;;;;;;;18.38;64.04;102999.47;4993240;28;20026;-73
2021/09/02 10:34:47;;;;;;;19.63;8.93;;;;;;;18.50;64.87;102996.47;4992200;28;20027;-73
2021/09/02 10:37:40;;;;;;;19.55;7.95;;;;;;;18.52;62.54;102992.81;4993028;28;20041;-73
2021/09/02 10:40:26;;;;;;;26.55;8.88;;;;;;;18.56;62.83;102991.53;4992717;28;20038;-74
2021/09/02 10:42:57;;;;;;;20.17;8.75;;;;;;;18.56;61.66;102987.00;4992913;28;20026;-73
2021/09/02 10:45:26;;;;;;;16.27;8.02;;;;;;;18.63;64.31;102985.44;4993105;28;20126;-73
2021/09/02 10:47:56;;;;;;;25.52;8.90;;;;;;;18.74;63.69;102983.63;4993263;28;20039;-74
2021/09/02 10:50:29;;;;;;;22.88;8.95;;;;;;;18.82;63.22;102989.13;4992911;28;20478;-73
2021/09/02 10:53:12;;;;;;;20.98;8.13;;;;;;;18.96;64.06;102987.88;4993235;28;20038;-73
2021/09/02 10:55:47;;;;;;;22.58;8.15;;;;;;;19.13;62.21;102997.97;4992081;28;20427;-73
2021/09/02 10:58:46;;;;;;;27.13;8.65;;;;;;;19.28;61.85;103003.75;4992972;28;20034;-73
2021/09/02 11:01:20;;;;;;;20.75;7.78;;;;;;;19.36;60.20;102992.25;4992737;28;20057;-73
2021/09/02 11:03:46;;;;;;;21.23;8.60;;;;;;;19.56;59.81;102993.91;4992234;28;20031;-73
2021/09/02 11:06:12;;;;;;;19.58;8.25;;;;;;;19.69;58.35;102998.13;4992669;28;20035;-72
2021/09/02 11:08:40;;;;;;;22.25;7.78;;;;;;;20.12;59.31;103006.66;4992135;28;20498;-73
2021/09/02 11:11:21;;;;;;;16.52;8.13;;;;;;;20.33;59.41;103003.69;4992865;28;20092;-73
2021/09/02 11:13:49;;;;;;;18.35;7.65;;;;;;;20.34;56.90;102989.19;4993618;28;20045;-73
2021/09/02 11:16:16;;;;;;;19.20;8.35;;;;;;;20.63;56.15;102990.84;4996604;28;20034;-73
2021/09/02 11:18:46;;;;;;;16.80;7.78;;;;;;;20.80;58.06;102991.91;4995839;28;20463;-73